This is the latest recevied weather packets stored in our database for station/object DG3RAP-11. If no packets are shown the sender has not sent any weather packets the latest 10 day(s).
| Time | Temp. | Humidity | Pressure | Rain* | Wind** | Luminosity | Snow |
|---|---|---|---|---|---|---|---|
| 1777518543 | 3.89° C | 43% | 1027.3 hPa | 0 mm | - | - | - |
| 1777518003 | 3.33° C | 44% | 1027.3 hPa | 0 mm | - | - | - |
| 1777517643 | 3.33° C | 45% | 1027.4 hPa | 0 mm | - | - | - |
| 1777517103 | 3.33° C | 44% | 1027.3 hPa | 0 mm | - | - | - |
| 1777516563 | 3.33° C | 44% | 1027.4 hPa | 0 mm | - | - | - |
| 1777516023 | 3.33° C | 44% | 1027.3 hPa | 0 mm | - | - | - |
| 1777515483 | 3.33° C | 45% | 1027.5 hPa | 0 mm | - | - | - |
| 1777514943 | 2.22° C | 50% | 1027.5 hPa | 0 mm | - | - | - |
| 1777514403 | 2.78° C | 48% | 1027.3 hPa | 0 mm | - | - | - |
| 1777514043 | 2.78° C | 47% | 1027.4 hPa | 0 mm | - | - | - |
| 1777513503 | 3.33° C | 46% | 1027.3 hPa | 0 mm | - | - | - |
| 1777512963 | 2.78° C | 48% | 1027.3 hPa | 0 mm | - | - | - |
| 1777512423 | 2.78° C | 47% | 1027.4 hPa | 0 mm | - | - | - |
| 1777511883 | 3.33° C | 47% | 1027.2 hPa | 0 mm | - | - | - |
| 1777511343 | 3.33° C | 47% | 1027.1 hPa | 0 mm | - | - | - |
| 1777510804 | 3.33° C | 45% | 1027.3 hPa | 0 mm | - | - | - |
| 1777510443 | 3.89° C | 45% | 1027.2 hPa | 0 mm | - | - | - |
| 1777509363 | 3.89° C | 45% | 1027.2 hPa | 0 mm | - | - | - |
| 1777508823 | 3.89° C | 44% | 1026.9 hPa | 0 mm | - | - | - |
| 1777507743 | 4.44° C | 43% | 1026.9 hPa | 0 mm | - | - | - |
| 1777501623 | 6.67° C | 41% | 1026 hPa | 0 mm | - | - | - |
| 1777500543 | 6.67° C | 40% | 1025.8 hPa | 0 mm | - | - | - |
| 1777497483 | 7.78° C | 39% | 1025.4 hPa | 0 mm | - | - | - |
| 1777496943 | 7.78° C | 38% | 1025 hPa | 0 mm | - | - | - |
| 1777494423 | 8.33° C | 37% | 1024.6 hPa | 0 mm | - | - | - |
* Rain latest hour (hover to see other rain measurements)
** Current wind speed in m/s (hover to see current wind gust speed)